createdAt,value
2023-01-04T00:00:58.851Z,0.00
2023-01-04T00:01:58.909Z,0.00
2023-01-04T00:02:58.902Z,0.00
2023-01-04T00:03:58.827Z,0.00
2023-01-04T00:04:58.745Z,0.00
2023-01-04T00:05:58.719Z,0.00
2023-01-04T00:06:58.731Z,0.00
2023-01-04T00:07:58.715Z,0.00
2023-01-04T00:08:58.706Z,0.00
2023-01-04T00:09:58.698Z,0.00
2023-01-04T00:10:58.668Z,0.00
2023-01-04T00:11:58.656Z,0.00
2023-01-04T00:12:58.657Z,0.00
2023-01-04T00:13:58.668Z,0.00
2023-01-04T00:14:58.629Z,0.00
2023-01-04T00:16:03.885Z,0.00
2023-01-04T00:16:59.591Z,0.00
2023-01-04T00:17:58.599Z,0.00
2023-01-04T00:18:58.592Z,0.00
2023-01-04T00:19:58.560Z,0.00
2023-01-04T00:20:58.563Z,0.00
2023-01-04T00:21:58.563Z,0.00
2023-01-04T00:22:58.523Z,0.00
2023-01-04T00:23:58.549Z,0.00
2023-01-04T00:24:58.523Z,0.00
2023-01-04T00:25:58.514Z,0.00
2023-01-04T00:26:58.481Z,0.00
2023-01-04T00:27:58.494Z,0.00
2023-01-04T00:28:58.460Z,0.00
2023-01-04T00:29:58.450Z,0.00
2023-01-04T00:30:58.487Z,0.00
2023-01-04T00:31:58.425Z,0.00
2023-01-04T00:32:58.488Z,0.00
2023-01-04T00:33:58.416Z,0.00
2023-01-04T00:34:58.398Z,0.00
2023-01-04T00:35:58.383Z,0.00
2023-01-04T00:36:58.376Z,0.00
2023-01-04T00:37:58.365Z,0.00
2023-01-04T00:38:58.367Z,0.00
2023-01-04T00:39:58.359Z,0.00
2023-01-04T00:40:58.342Z,0.00
2023-01-04T00:42:00.132Z,0.00
2023-01-04T00:42:58.301Z,0.00
2023-01-04T00:43:58.317Z,0.00
2023-01-04T00:44:58.291Z,0.00
2023-01-04T00:45:58.323Z,0.00
2023-01-04T00:46:58.273Z,0.00
2023-01-04T00:47:58.256Z,0.00
2023-01-04T00:49:00.702Z,0.00
2023-01-04T00:49:58.237Z,0.00
2023-01-04T00:50:58.231Z,0.00
2023-01-04T00:51:58.263Z,0.00
2023-01-04T00:52:58.197Z,0.00
2023-01-04T00:53:58.187Z,0.00
2023-01-04T00:54:58.180Z,0.00
2023-01-04T00:55:58.203Z,0.00
2023-01-04T00:56:58.200Z,0.00
2023-01-04T00:57:58.139Z,0.00
2023-01-04T00:58:58.137Z,0.00
2023-01-04T00:59:58.124Z,0.00
2023-01-04T01:01:06.902Z,0.00
2023-01-04T01:01:58.226Z,0.00
2023-01-04T01:02:58.338Z,0.00
2023-01-04T01:03:58.266Z,0.00
2023-01-04T01:04:58.057Z,0.00
2023-01-04T01:05:58.051Z,0.00
2023-01-04T01:06:58.036Z,0.00
2023-01-04T01:07:58.033Z,0.00
2023-01-04T01:08:58.039Z,0.00
2023-01-04T01:09:58.024Z,0.00
2023-01-04T01:10:57.992Z,0.00
2023-01-04T01:11:57.991Z,0.00
2023-01-04T01:12:58.008Z,0.00
2023-01-04T01:13:57.970Z,0.00
2023-01-04T01:15:00.584Z,0.00
2023-01-04T01:15:57.974Z,0.00
2023-01-04T01:16:58.810Z,0.00
2023-01-04T01:17:57.939Z,0.00
2023-01-04T01:18:57.902Z,0.00
2023-01-04T01:19:57.904Z,0.00
2023-01-04T01:20:57.881Z,0.00
2023-01-04T01:21:58.173Z,0.00
2023-01-04T01:22:57.885Z,0.00
2023-01-04T01:23:57.872Z,0.00
2023-01-04T01:24:57.855Z,0.00
2023-01-04T01:25:57.836Z,0.00
2023-01-04T01:26:57.838Z,0.00
2023-01-04T01:27:57.804Z,0.00
2023-01-04T01:28:57.814Z,0.00
2023-01-04T01:29:57.816Z,0.00
2023-01-04T01:30:57.817Z,0.00
2023-01-04T01:31:57.857Z,0.00
2023-01-04T01:32:57.772Z,0.00
2023-01-04T01:33:57.773Z,0.00
2023-01-04T01:34:57.732Z,0.00
2023-01-04T01:35:57.714Z,0.00
2023-01-04T01:36:57.733Z,0.00
2023-01-04T01:37:57.700Z,0.00
2023-01-04T01:38:57.702Z,0.00
2023-01-04T01:39:57.669Z,0.00
2023-01-04T01:40:57.668Z,0.00
2023-01-04T01:41:57.657Z,0.00
2023-01-04T01:42:57.665Z,0.00
2023-01-04T01:43:57.658Z,0.00
2023-01-04T01:44:57.653Z,0.00
2023-01-04T01:45:57.686Z,0.00
2023-01-04T01:46:57.638Z,0.00
2023-01-04T01:47:57.615Z,0.00
2023-01-04T01:48:57.588Z,0.00
2023-01-04T01:49:57.566Z,0.00
2023-01-04T01:50:57.552Z,0.00
2023-01-04T01:51:57.562Z,0.00
2023-01-04T01:52:57.537Z,0.00
2023-01-04T01:53:57.546Z,0.00
2023-01-04T01:54:57.506Z,0.00
2023-01-04T01:55:57.496Z,0.00
2023-01-04T01:56:57.488Z,0.00
2023-01-04T01:57:57.492Z,0.00
2023-01-04T01:58:57.484Z,0.00
2023-01-04T01:59:57.455Z,0.00
2023-01-04T02:00:57.464Z,0.00
2023-01-04T02:01:57.548Z,0.00
2023-01-04T02:02:57.694Z,0.00
2023-01-04T02:03:57.549Z,0.00
2023-01-04T02:04:57.401Z,0.00
2023-01-04T02:05:57.395Z,0.00
2023-01-04T02:06:57.401Z,0.00
2023-01-04T02:07:57.363Z,0.00
2023-01-04T02:08:57.376Z,0.00
2023-01-04T02:09:57.343Z,0.00
2023-01-04T02:10:57.345Z,0.00
2023-01-04T02:11:57.352Z,0.00
2023-01-04T02:12:57.358Z,0.00
2023-01-04T02:13:57.320Z,0.00
2023-01-04T02:14:57.296Z,0.00
2023-01-04T02:15:57.332Z,0.00
2023-01-04T02:16:57.380Z,0.00
2023-01-04T02:17:57.285Z,0.00
2023-01-04T02:18:57.242Z,0.00
2023-01-04T02:19:57.259Z,0.00
2023-01-04T02:20:57.213Z,0.00
2023-01-04T02:21:57.211Z,0.00
2023-01-04T02:22:57.200Z,0.00
2023-01-04T02:23:57.192Z,0.00
2023-01-04T02:24:57.196Z,0.00
2023-01-04T02:25:57.165Z,0.00
2023-01-04T02:26:57.146Z,0.00
2023-01-04T02:27:57.153Z,0.00
2023-01-04T02:28:57.129Z,0.00
2023-01-04T02:29:57.154Z,0.00
2023-01-04T02:30:57.220Z,0.00
2023-01-04T02:31:57.246Z,0.00
2023-01-04T02:32:57.112Z,0.00
2023-01-04T02:33:57.184Z,0.00
2023-01-04T02:34:58.970Z,0.00
2023-01-04T02:35:57.111Z,0.00
2023-01-04T02:36:57.050Z,0.00
2023-01-04T02:37:57.042Z,0.00
2023-01-04T02:38:57.017Z,0.00
2023-01-04T02:39:57.050Z,0.00
2023-01-04T02:40:57.030Z,0.00
2023-01-04T02:41:57.002Z,0.00
2023-01-04T02:42:56.975Z,0.00
2023-01-04T02:43:57.058Z,0.00
2023-01-04T02:44:56.976Z,0.00
2023-01-04T02:45:56.982Z,0.00
2023-01-04T02:46:56.984Z,0.00
2023-01-04T02:47:56.917Z,0.00
2023-01-04T02:48:56.953Z,0.00
2023-01-04T02:50:03.982Z,0.00
2023-01-04T02:50:57.899Z,0.00
2023-01-04T02:51:56.871Z,0.00
2023-01-04T02:52:56.928Z,0.00
2023-01-04T02:53:56.869Z,0.00
2023-01-04T02:54:56.844Z,0.00
2023-01-04T02:55:56.833Z,0.00
2023-01-04T02:57:02.689Z,0.00
2023-01-04T02:57:57.807Z,0.00
2023-01-04T02:58:56.838Z,0.00
2023-01-04T02:59:56.806Z,0.00
2023-01-04T03:00:56.783Z,0.00
2023-01-04T03:01:56.858Z,0.00
2023-01-04T03:02:56.975Z,0.00
2023-01-04T03:03:56.848Z,0.00
2023-01-04T03:04:56.748Z,0.00
2023-01-04T03:05:56.722Z,0.00
2023-01-04T03:06:56.741Z,0.00
2023-01-04T03:07:56.697Z,0.00
2023-01-04T03:08:56.717Z,0.00
2023-01-04T03:09:56.674Z,0.00
2023-01-04T03:10:56.662Z,0.00
2023-01-04T03:11:56.673Z,0.00
2023-01-04T03:12:56.646Z,0.00
2023-01-04T03:13:56.633Z,0.00
2023-01-04T03:14:56.618Z,0.00
2023-01-04T03:15:56.740Z,0.00
2023-01-04T03:16:56.599Z,0.00
2023-01-04T03:17:56.592Z,0.00
2023-01-04T03:18:56.567Z,0.00
2023-01-04T03:19:56.622Z,0.00
2023-01-04T03:20:56.594Z,0.00
2023-01-04T03:21:56.555Z,0.00
2023-01-04T03:22:56.537Z,0.00
2023-01-04T03:23:56.538Z,0.00
2023-01-04T03:24:56.530Z,0.00
2023-01-04T03:25:56.487Z,0.00
2023-01-04T03:26:56.512Z,0.00
2023-01-04T03:27:56.471Z,0.00
2023-01-04T03:28:56.472Z,0.00
2023-01-04T03:29:56.456Z,0.00
2023-01-04T03:30:56.482Z,0.00
2023-01-04T03:31:56.633Z,0.00
2023-01-04T03:32:56.445Z,0.00
2023-01-04T03:33:56.414Z,0.00
2023-01-04T03:34:56.420Z,0.00
2023-01-04T03:35:56.386Z,0.00
2023-01-04T03:36:56.416Z,0.00
2023-01-04T03:37:56.452Z,0.00
2023-01-04T03:38:56.361Z,0.00
2023-01-04T03:39:56.350Z,0.00
2023-01-04T03:40:56.333Z,0.00
2023-01-04T03:41:56.342Z,0.00
2023-01-04T03:42:56.330Z,0.00
2023-01-04T03:43:56.306Z,0.00
2023-01-04T03:44:56.301Z,0.00
2023-01-04T03:45:56.304Z,0.00
2023-01-04T03:46:56.363Z,0.00
2023-01-04T03:47:56.262Z,0.00
2023-01-04T03:48:56.240Z,0.00
2023-01-04T03:49:56.234Z,0.00
2023-01-04T03:50:56.237Z,0.00
2023-01-04T03:51:56.230Z,0.00
2023-01-04T03:52:56.211Z,0.00
2023-01-04T03:53:56.206Z,0.00
2023-01-04T03:54:56.173Z,0.00
2023-01-04T03:55:56.182Z,0.00
2023-01-04T03:56:56.155Z,0.00
2023-01-04T03:57:56.176Z,0.00
2023-01-04T03:58:56.144Z,0.00
2023-01-04T03:59:56.149Z,0.00
2023-01-04T04:00:56.157Z,0.00
2023-01-04T04:01:56.224Z,0.00
2023-01-04T04:02:56.085Z,0.00
2023-01-04T04:03:56.216Z,0.00
2023-01-04T04:04:56.069Z,0.00
2023-01-04T04:05:56.059Z,0.00
2023-01-04T04:06:56.069Z,0.00
2023-01-04T04:07:56.035Z,0.00
2023-01-04T04:08:56.059Z,0.00
2023-01-04T04:09:56.039Z,0.00
2023-01-04T04:10:56.015Z,0.00
2023-01-04T04:11:56.075Z,0.00
2023-01-04T04:12:55.992Z,0.00
2023-01-04T04:13:55.964Z,0.00
2023-01-04T04:14:55.957Z,0.00
2023-01-04T04:15:55.981Z,0.00
2023-01-04T04:16:56.064Z,0.00
2023-01-04T04:17:55.919Z,0.00
2023-01-04T04:18:55.914Z,0.00
2023-01-04T04:19:55.917Z,0.00
2023-01-04T04:20:55.917Z,0.00
2023-01-04T04:21:55.875Z,0.00
2023-01-04T04:22:55.993Z,0.00
2023-01-04T04:23:55.907Z,0.00
2023-01-04T04:24:55.859Z,0.00
2023-01-04T04:25:55.870Z,0.00
2023-01-04T04:26:56.037Z,0.00
2023-01-04T04:27:55.808Z,0.00
2023-01-04T04:28:55.817Z,0.00
2023-01-04T04:29:55.792Z,0.00
2023-01-04T04:30:55.770Z,0.00
2023-01-04T04:31:55.824Z,0.00
2023-01-04T04:32:55.781Z,0.00
2023-01-04T04:33:55.747Z,0.00
2023-01-04T04:34:55.726Z,0.00
2023-01-04T04:35:55.723Z,0.00
2023-01-04T04:36:55.728Z,0.00
2023-01-04T04:37:55.700Z,0.00
2023-01-04T04:38:55.686Z,0.00
2023-01-04T04:39:55.674Z,0.00
2023-01-04T04:40:55.681Z,0.00
2023-01-04T04:41:55.691Z,0.00
2023-01-04T04:42:55.641Z,0.00
2023-01-04T04:43:55.678Z,0.00
2023-01-04T04:44:55.628Z,0.00
2023-01-04T04:45:55.673Z,0.00
2023-01-04T04:46:55.623Z,0.00
2023-01-04T04:47:55.605Z,0.00
2023-01-04T04:48:55.599Z,0.00
2023-01-04T04:49:55.604Z,0.00
2023-01-04T04:50:55.557Z,0.00
2023-01-04T04:51:55.567Z,0.00
2023-01-04T04:52:56.384Z,0.00
2023-01-04T04:53:55.523Z,0.00
2023-01-04T04:54:55.514Z,0.00
2023-01-04T04:55:55.526Z,0.00
2023-01-04T04:56:55.657Z,0.00
2023-01-04T04:57:55.482Z,0.00
2023-01-04T04:58:55.474Z,0.00
2023-01-04T04:59:55.465Z,0.00
2023-01-04T05:00:55.515Z,0.00
2023-01-04T05:01:55.683Z,0.00
2023-01-04T05:02:55.503Z,0.00
2023-01-04T05:03:55.411Z,0.00
2023-01-04T05:04:55.422Z,0.00
2023-01-04T05:05:55.395Z,0.00
2023-01-04T05:06:55.412Z,0.00
2023-01-04T05:07:55.408Z,0.00
2023-01-04T05:08:55.373Z,0.00
2023-01-04T05:09:55.352Z,0.00
2023-01-04T05:10:55.353Z,0.00
2023-01-04T05:11:55.396Z,0.00
2023-01-04T05:12:57.956Z,0.00
2023-01-04T05:13:55.335Z,0.00
2023-01-04T05:14:55.289Z,0.00
2023-01-04T05:15:55.319Z,0.00
2023-01-04T05:16:55.439Z,0.00
2023-01-04T05:17:55.284Z,0.00
2023-01-04T05:18:55.250Z,0.00
2023-01-04T05:19:55.255Z,0.00
2023-01-04T05:20:55.217Z,0.00
2023-01-04T05:21:55.218Z,0.00
2023-01-04T05:22:55.228Z,0.00
2023-01-04T05:23:55.188Z,0.00
2023-01-04T05:24:55.199Z,0.00
2023-01-04T05:25:55.180Z,0.00
2023-01-04T05:26:55.171Z,0.00
2023-01-04T05:27:55.157Z,0.00
2023-01-04T05:28:55.174Z,0.00
2023-01-04T05:29:55.139Z,0.00
2023-01-04T05:30:55.133Z,0.00
2023-01-04T05:31:55.219Z,0.00
2023-01-04T05:32:55.113Z,0.00
2023-01-04T05:33:55.092Z,0.00
2023-01-04T05:34:55.084Z,0.00
2023-01-04T05:35:55.073Z,0.00
2023-01-04T05:36:55.044Z,0.00
2023-01-04T05:37:55.077Z,0.00
2023-01-04T05:38:55.034Z,0.00
2023-01-04T05:39:55.023Z,0.00
2023-01-04T05:40:55.002Z,0.00
2023-01-04T05:41:54.999Z,0.00
2023-01-04T05:42:54.991Z,0.00
2023-01-04T05:43:54.997Z,0.00
2023-01-04T05:44:54.988Z,0.00
2023-01-04T05:45:55.054Z,0.00
2023-01-04T05:46:54.949Z,0.00
2023-01-04T05:47:54.921Z,0.00
2023-01-04T05:48:54.912Z,0.00
2023-01-04T05:49:54.926Z,0.00
2023-01-04T05:50:54.891Z,0.00
2023-01-04T05:51:54.877Z,0.00
2023-01-04T05:52:54.865Z,0.00
2023-01-04T05:53:54.866Z,0.00
2023-01-04T05:54:54.867Z,0.00
2023-01-04T05:55:54.829Z,0.00
2023-01-04T05:56:54.824Z,0.00
2023-01-04T05:57:54.816Z,0.00
2023-01-04T05:58:54.872Z,0.00
2023-01-04T05:59:54.802Z,0.00
2023-01-04T06:00:54.839Z,0.00
2023-01-04T06:01:54.903Z,0.00
2023-01-04T06:02:54.940Z,0.00
2023-01-04T06:03:54.798Z,0.00
2023-01-04T06:04:58.749Z,0.00
2023-01-04T06:05:54.756Z,0.00
2023-01-04T06:06:54.757Z,0.00
2023-01-04T06:07:54.699Z,0.00
2023-01-04T06:08:54.714Z,0.00
2023-01-04T06:09:54.688Z,0.00
2023-01-04T06:10:54.666Z,0.00
2023-01-04T06:11:54.679Z,0.00
2023-01-04T06:12:54.648Z,0.00
2023-01-04T06:13:54.633Z,0.00
2023-01-04T06:14:54.627Z,0.00
2023-01-04T06:15:54.605Z,0.00
2023-01-04T06:16:54.718Z,0.00
2023-01-04T06:17:54.626Z,0.00
2023-01-04T06:18:54.590Z,0.00
2023-01-04T06:19:54.580Z,0.00
2023-01-04T06:20:54.578Z,0.00
2023-01-04T06:21:54.542Z,0.00
2023-01-04T06:22:54.537Z,0.00
2023-01-04T06:23:54.531Z,0.00
2023-01-04T06:24:54.521Z,0.00
2023-01-04T06:25:54.528Z,0.00
2023-01-04T06:26:54.520Z,0.00
2023-01-04T06:27:54.483Z,0.00
2023-01-04T06:28:54.490Z,0.00
2023-01-04T06:29:54.461Z,0.00
2023-01-04T06:30:54.512Z,0.00
2023-01-04T06:31:54.471Z,0.00
2023-01-04T06:32:54.432Z,0.00
2023-01-04T06:33:54.417Z,0.00
2023-01-04T06:34:54.415Z,0.00
2023-01-04T06:35:54.402Z,0.00
2023-01-04T06:36:54.403Z,0.00
2023-01-04T06:37:54.374Z,0.00
2023-01-04T06:38:54.357Z,0.00
2023-01-04T06:39:54.386Z,0.00
2023-01-04T06:40:54.351Z,0.00
2023-01-04T06:41:55.443Z,0.00
2023-01-04T06:42:54.309Z,0.00
2023-01-04T06:43:54.312Z,0.00
2023-01-04T06:44:54.287Z,0.00
2023-01-04T06:45:54.316Z,0.00
2023-01-04T06:46:54.265Z,0.00
2023-01-04T06:47:54.269Z,0.00
2023-01-04T06:48:54.276Z,0.00
2023-01-04T06:49:54.278Z,0.00
2023-01-04T06:50:54.229Z,0.00
2023-01-04T06:51:54.330Z,0.00
2023-01-04T06:52:54.231Z,0.00
2023-01-04T06:53:54.195Z,0.00
2023-01-04T06:54:54.183Z,0.00
2023-01-04T06:55:54.166Z,0.00
2023-01-04T06:56:54.149Z,0.00
2023-01-04T06:57:59.362Z,0.00
2023-01-04T06:58:55.138Z,0.00
2023-01-04T06:59:54.139Z,0.00
2023-01-04T07:00:54.191Z,4.00
2023-01-04T07:02:02.267Z,0.00
2023-01-04T07:03:12.452Z,0.00
2023-01-04T07:03:55.185Z,4.00
2023-01-04T07:04:54.220Z,4.00
2023-01-04T07:05:54.057Z,4.00
2023-01-04T07:06:54.041Z,4.00
2023-01-04T07:07:54.033Z,4.00
2023-01-04T07:08:54.039Z,4.00
2023-01-04T07:09:54.083Z,8.00
2023-01-04T07:10:54.017Z,4.00
2023-01-04T07:11:53.987Z,8.00
2023-01-04T07:12:53.978Z,12.00
2023-01-04T07:13:54.002Z,12.00
2023-01-04T07:14:53.965Z,16.00
2023-01-04T07:15:53.982Z,16.00
2023-01-04T07:16:53.931Z,12.00
2023-01-04T07:17:53.974Z,16.00
2023-01-04T07:18:53.929Z,16.00
2023-01-04T07:19:53.919Z,20.00
2023-01-04T07:20:53.960Z,16.00
2023-01-04T07:21:54.079Z,20.00
2023-01-04T07:22:53.862Z,24.00
2023-01-04T07:23:53.883Z,24.00
2023-01-04T07:24:53.839Z,20.00
2023-01-04T07:25:53.844Z,24.00
2023-01-04T07:26:53.820Z,28.00
2023-01-04T07:27:53.821Z,36.00
2023-01-04T07:28:53.858Z,40.00
2023-01-04T07:29:53.839Z,40.00
2023-01-04T07:30:53.883Z,44.00
2023-01-04T07:31:53.811Z,48.00
2023-01-04T07:32:53.756Z,52.00
2023-01-04T07:33:53.763Z,64.00
2023-01-04T07:34:53.737Z,64.00
2023-01-04T07:35:53.730Z,56.00
2023-01-04T07:36:53.725Z,56.00
2023-01-04T07:37:58.165Z,56.00
2023-01-04T07:38:54.749Z,64.00
2023-01-04T07:39:53.705Z,64.00
2023-01-04T07:40:56.111Z,68.00
2023-01-04T07:41:53.651Z,68.00
2023-01-04T07:42:53.643Z,76.00
2023-01-04T07:43:53.664Z,76.00
2023-01-04T07:44:53.640Z,64.00
2023-01-04T07:45:53.673Z,76.00
2023-01-04T07:46:53.740Z,72.00
2023-01-04T07:47:53.584Z,68.00
2023-01-04T07:48:53.599Z,56.00
2023-01-04T07:49:53.600Z,64.00
2023-01-04T07:50:53.545Z,84.00
2023-01-04T07:51:53.544Z,72.00
2023-01-04T07:52:53.563Z,84.00
2023-01-04T07:53:53.544Z,88.00
2023-01-04T07:54:53.518Z,104.00
2023-01-04T07:55:53.506Z,100.00
2023-01-04T07:56:53.514Z,84.00
2023-01-04T07:57:53.475Z,96.00
2023-01-04T07:58:53.460Z,116.00
2023-01-04T07:59:53.479Z,136.00
2023-01-04T08:00:53.443Z,140.00
2023-01-04T08:01:53.628Z,136.00
2023-01-04T08:02:53.662Z,128.00
2023-01-04T08:03:53.444Z,124.00
2023-01-04T08:04:53.591Z,136.00
2023-01-04T08:05:53.411Z,128.00
2023-01-04T08:06:53.374Z,136.00
2023-01-04T08:07:53.369Z,144.00
2023-01-04T08:08:53.383Z,184.00
2023-01-04T08:09:53.365Z,232.00
2023-01-04T08:10:53.341Z,212.00
2023-01-04T08:11:53.325Z,240.00
2023-01-04T08:12:53.316Z,220.00
2023-01-04T08:13:53.360Z,260.00
2023-01-04T08:14:53.361Z,264.00
2023-01-04T08:15:53.357Z,216.00
2023-01-04T08:16:53.270Z,240.00
2023-01-04T08:17:53.254Z,260.00
2023-01-04T08:18:53.246Z,304.00
2023-01-04T08:19:53.260Z,284.00
2023-01-04T08:20:58.365Z,264.00
2023-01-04T08:21:54.213Z,232.00
2023-01-04T08:22:53.209Z,220.00
2023-01-04T08:23:53.190Z,264.00
2023-01-04T08:24:53.196Z,336.00
2023-01-04T08:25:53.201Z,312.00
2023-01-04T08:26:53.153Z,312.00
2023-01-04T08:27:53.142Z,300.00
2023-01-04T08:28:53.151Z,284.00
2023-01-04T08:29:53.120Z,332.00
2023-01-04T08:30:53.148Z,324.00
2023-01-04T08:31:53.164Z,296.00
2023-01-04T08:32:53.085Z,280.00
2023-01-04T08:33:53.105Z,312.00
2023-01-04T08:34:53.069Z,312.00
2023-01-04T08:35:53.085Z,396.00
2023-01-04T08:36:53.049Z,392.00
2023-01-04T08:37:53.048Z,412.00
2023-01-04T08:38:59.834Z,368.00
2023-01-04T08:39:54.016Z,396.00
2023-01-04T08:41:00.225Z,428.00
2023-01-04T08:42:09.982Z,388.00
2023-01-04T08:42:53.985Z,412.00
2023-01-04T08:43:52.982Z,396.00
2023-01-04T08:44:58.713Z,436.00
2023-01-04T08:45:52.948Z,420.00
2023-01-04T08:46:53.145Z,484.00
2023-01-04T08:47:52.917Z,464.00
2023-01-04T08:48:52.907Z,436.00
2023-01-04T08:49:52.900Z,532.00
2023-01-04T08:50:52.894Z,516.00
2023-01-04T08:51:52.913Z,508.00
2023-01-04T08:52:52.860Z,524.00
2023-01-04T08:53:52.857Z,548.00
2023-01-04T08:54:52.877Z,424.00
2023-01-04T08:55:52.830Z,576.00
2023-01-04T08:56:52.910Z,728.00
2023-01-04T08:57:52.807Z,536.00
2023-01-04T08:58:52.798Z,496.00
2023-01-04T08:59:52.785Z,500.00
2023-01-04T09:00:52.788Z,488.00
2023-01-04T09:01:52.927Z,580.00
2023-01-04T09:02:53.010Z,660.00
2023-01-04T09:03:52.737Z,612.00
2023-01-04T09:04:52.861Z,556.00
2023-01-04T09:05:52.718Z,536.00
2023-01-04T09:06:52.725Z,564.00
2023-01-04T09:07:52.699Z,576.00
2023-01-04T09:08:52.704Z,504.00
2023-01-04T09:09:52.690Z,512.00
2023-01-04T09:10:52.687Z,496.00
2023-01-04T09:11:52.655Z,480.00
2023-01-04T09:12:52.656Z,500.00
2023-01-04T09:13:52.635Z,384.00
2023-01-04T09:14:52.633Z,440.00
2023-01-04T09:15:52.674Z,388.00
2023-01-04T09:16:52.600Z,424.00
2023-01-04T09:18:29.539Z,572.00
2023-01-04T09:18:53.581Z,456.00
2023-01-04T09:19:52.591Z,296.00
2023-01-04T09:20:52.577Z,312.00
2023-01-04T09:21:52.613Z,328.00
2023-01-04T09:22:52.570Z,352.00
2023-01-04T09:23:52.539Z,356.00
2023-01-04T09:24:52.537Z,308.00
2023-01-04T09:25:52.502Z,296.00
2023-01-04T09:26:52.490Z,344.00
2023-01-04T09:27:52.476Z,352.00
2023-01-04T09:28:52.487Z,348.00
2023-01-04T09:29:52.484Z,400.00
2023-01-04T09:30:52.617Z,432.00
2023-01-04T09:31:52.524Z,396.00
2023-01-04T09:32:52.423Z,376.00
2023-01-04T09:34:53.452Z,444.00
2023-01-04T09:35:52.383Z,488.00
2023-01-04T09:36:52.400Z,496.00
2023-01-04T09:37:52.362Z,460.00
2023-01-04T09:38:52.379Z,452.00
2023-01-04T09:39:52.363Z,524.00
2023-01-04T09:40:52.357Z,676.00
2023-01-04T09:41:52.346Z,828.00
2023-01-04T09:43:20.886Z,792.00
2023-01-04T09:43:53.297Z,884.00
2023-01-04T09:45:22.556Z,1048.00
2023-01-04T09:45:53.281Z,1064.00
2023-01-04T09:46:52.355Z,900.00
2023-01-04T09:47:52.293Z,896.00
2023-01-04T09:48:52.278Z,800.00
2023-01-04T09:49:52.224Z,688.00
2023-01-04T09:50:52.221Z,752.00
2023-01-04T09:51:52.207Z,852.00
2023-01-04T09:52:52.222Z,896.00
2023-01-04T09:53:52.188Z,780.00
2023-01-04T09:54:52.203Z,816.00
2023-01-04T09:55:52.164Z,828.00
2023-01-04T09:56:52.158Z,860.00
2023-01-04T09:57:52.183Z,900.00
2023-01-04T09:58:52.152Z,952.00
2023-01-04T09:59:52.140Z,968.00
2023-01-04T10:00:52.339Z,928.00
2023-01-04T10:01:52.506Z,952.00
2023-01-04T10:02:52.307Z,984.00
2023-01-04T10:03:52.185Z,1024.00
2023-01-04T10:04:52.058Z,936.00
2023-01-04T10:05:52.072Z,964.00
2023-01-04T10:06:52.049Z,1028.00
2023-01-04T10:07:52.033Z,1024.00
2023-01-04T10:08:52.024Z,1044.00
2023-01-04T10:09:52.010Z,956.00
2023-01-04T10:10:52.059Z,944.00
2023-01-04T10:11:51.982Z,940.00
2023-01-04T10:12:55.185Z,904.00
2023-01-04T10:13:52.986Z,972.00
2023-01-04T10:14:51.992Z,1056.00
2023-01-04T10:15:51.992Z,1096.00
2023-01-04T10:19:50.304Z,1032.00
2023-01-04T10:21:52.936Z,984.00
2023-01-04T10:22:51.942Z,1008.00
2023-01-04T10:23:51.885Z,936.00
2023-01-04T10:24:51.847Z,1000.00
2023-01-04T10:25:51.833Z,1032.00
2023-01-04T10:26:51.841Z,968.00
2023-01-04T10:27:51.832Z,820.00
2023-01-04T10:28:51.805Z,760.00
2023-01-04T10:29:51.781Z,712.00
2023-01-04T10:30:51.797Z,704.00
2023-01-04T10:31:51.832Z,708.00
2023-01-04T10:32:51.953Z,700.00
2023-01-04T10:33:51.742Z,700.00
2023-01-04T10:34:51.737Z,688.00
2023-01-04T10:35:51.723Z,592.00
2023-01-04T10:36:51.723Z,624.00
2023-01-04T10:37:51.725Z,668.00
2023-01-04T10:38:51.696Z,736.00
2023-01-04T10:39:51.701Z,780.00
2023-01-04T10:40:51.696Z,672.00
2023-01-04T10:41:51.670Z,620.00
2023-01-04T10:42:51.725Z,688.00
2023-01-04T10:44:10.681Z,852.00
2023-01-04T10:44:52.629Z,748.00
2023-01-04T10:45:51.643Z,748.00
2023-01-04T10:46:51.657Z,732.00
2023-01-04T10:47:51.636Z,744.00
2023-01-04T10:48:51.601Z,736.00
2023-01-04T10:49:51.569Z,796.00
2023-01-04T10:50:51.557Z,856.00
2023-01-04T10:51:51.559Z,824.00
2023-01-04T10:52:51.634Z,864.00
2023-01-04T10:53:51.542Z,880.00
2023-01-04T10:54:51.525Z,808.00
2023-01-04T10:56:23.997Z,788.00
2023-01-04T10:56:52.524Z,912.00
2023-01-04T10:57:51.489Z,1356.00
2023-01-04T10:58:51.468Z,1484.00
2023-01-04T10:59:51.458Z,1456.00
2023-01-04T11:00:51.470Z,1540.00
2023-01-04T11:01:51.681Z,1340.00
2023-01-04T11:02:51.647Z,1276.00
2023-01-04T11:03:51.503Z,1332.00
2023-01-04T11:04:51.414Z,1264.00
2023-01-04T11:05:51.408Z,1464.00
2023-01-04T11:06:51.386Z,1376.00
2023-01-04T11:07:51.409Z,1268.00
2023-01-04T11:08:51.390Z,1108.00
2023-01-04T11:09:51.343Z,968.00
2023-01-04T11:10:51.352Z,896.00
2023-01-04T11:11:51.331Z,828.00
2023-01-04T11:12:51.328Z,740.00
2023-01-04T11:13:51.317Z,744.00
2023-01-04T11:14:51.307Z,680.00
2023-01-04T11:15:51.274Z,720.00
2023-01-04T11:16:51.326Z,900.00
2023-01-04T11:17:51.255Z,1044.00
2023-01-04T11:18:51.265Z,1280.00
2023-01-04T11:19:51.266Z,1316.00
2023-01-04T11:20:51.236Z,916.00
2023-01-04T11:21:51.207Z,1068.00
2023-01-04T11:22:51.325Z,784.00
2023-01-04T11:23:51.207Z,688.00
2023-01-04T11:25:32.620Z,704.00
2023-01-04T11:25:56.048Z,648.00
2023-01-04T11:26:51.158Z,632.00
2023-01-04T11:27:51.147Z,544.00
2023-01-04T11:28:51.142Z,544.00
2023-01-04T11:29:51.121Z,536.00
2023-01-04T11:30:51.146Z,664.00
2023-01-04T11:31:51.289Z,680.00
2023-01-04T11:32:51.087Z,768.00
2023-01-04T11:33:51.080Z,844.00
2023-01-04T11:34:51.099Z,1032.00
2023-01-04T11:35:51.068Z,1016.00
2023-01-04T11:36:51.081Z,828.00
2023-01-04T11:37:51.026Z,848.00
2023-01-04T11:38:51.020Z,920.00
2023-01-04T11:39:51.054Z,884.00
2023-01-04T11:40:51.006Z,812.00
2023-01-04T11:41:51.008Z,744.00
2023-01-04T11:42:50.986Z,880.00
2023-01-04T11:43:50.998Z,868.00
2023-01-04T11:44:50.957Z,976.00
2023-01-04T11:45:51.083Z,1120.00
2023-01-04T11:46:50.959Z,1136.00
2023-01-04T11:47:50.914Z,1168.00
2023-01-04T11:48:50.914Z,1236.00
2023-01-04T11:49:50.929Z,1176.00
2023-01-04T11:50:50.897Z,1288.00
2023-01-04T11:51:50.888Z,1064.00
2023-01-04T11:52:50.918Z,1116.00
2023-01-04T11:53:50.862Z,1172.00
2023-01-04T11:54:50.877Z,1304.00
2023-01-04T11:55:50.920Z,1400.00
2023-01-04T11:56:50.824Z,1652.00
2023-01-04T11:57:50.812Z,1592.00
2023-01-04T11:58:50.791Z,1604.00
2023-01-04T11:59:50.783Z,1632.00
2023-01-04T12:00:50.777Z,1796.00
2023-01-04T12:01:50.919Z,1572.00
2023-01-04T12:03:51.751Z,1344.00
2023-01-04T12:04:50.761Z,1404.00
2023-01-04T12:05:50.736Z,1260.00
2023-01-04T12:06:50.754Z,1544.00
2023-01-04T12:07:50.693Z,1560.00
2023-01-04T12:08:50.701Z,1632.00
2023-01-04T12:09:50.674Z,1676.00
2023-01-04T12:10:50.688Z,2000.00
2023-01-04T12:11:50.660Z,2344.00
2023-01-04T12:12:50.638Z,2404.00
2023-01-04T12:13:50.646Z,2272.00
2023-01-04T12:14:50.637Z,1924.00
2023-01-04T12:15:50.608Z,1696.00
2023-01-04T12:16:50.615Z,1548.00
2023-01-04T12:17:50.583Z,1188.00
2023-01-04T12:18:50.618Z,1148.00
2023-01-04T12:19:50.562Z,1088.00
2023-01-04T12:20:50.560Z,968.00
2023-01-04T12:21:50.543Z,792.00
2023-01-04T12:22:50.528Z,764.00
2023-01-04T12:23:50.535Z,788.00
2023-01-04T12:24:55.253Z,904.00
2023-01-04T12:25:51.512Z,940.00
2023-01-04T12:26:50.507Z,952.00
2023-01-04T12:27:50.504Z,1052.00
2023-01-04T12:28:50.476Z,1176.00
2023-01-04T12:29:50.477Z,1324.00
2023-01-04T12:30:50.443Z,1424.00
2023-01-04T12:31:50.434Z,1368.00
2023-01-04T12:32:50.414Z,1572.00
2023-01-04T12:33:50.412Z,1744.00
2023-01-04T12:34:50.444Z,1892.00
2023-01-04T12:35:50.387Z,2276.00
2023-01-04T12:36:50.377Z,2288.00
2023-01-04T12:37:50.374Z,2924.00
2023-01-04T12:38:50.348Z,3352.00
2023-01-04T12:39:50.364Z,2856.00
2023-01-04T12:40:50.396Z,2628.00
2023-01-04T12:41:50.312Z,2292.00
2023-01-04T12:42:50.323Z,1780.00
2023-01-04T12:43:50.302Z,1536.00
2023-01-04T12:44:50.305Z,1932.00
2023-01-04T12:45:50.317Z,1592.00
2023-01-04T12:46:50.268Z,1700.00
2023-01-04T12:47:50.246Z,1364.00
2023-01-04T12:48:50.258Z,1408.00
2023-01-04T12:49:50.336Z,1296.00
2023-01-04T12:50:58.187Z,1740.00
2023-01-04T12:52:20.462Z,1500.00
2023-01-04T12:53:51.179Z,1624.00
2023-01-04T12:54:50.187Z,1596.00
2023-01-04T12:55:50.188Z,1512.00
2023-01-04T12:56:50.173Z,1752.00
2023-01-04T12:57:50.140Z,1680.00
2023-01-04T12:59:51.117Z,1624.00
2023-01-04T13:00:50.201Z,1332.00
2023-01-04T13:01:59.954Z,1420.00